Time;durP1;ratioP1;P1;durP2;ratioP2;P2;SDS_P1;SDS_P2;PMS_P1;PMS_P2;Temp;Humidity;BMP_temperature;BMP_pressure;BME280_temperature;BME280_humidity;BME280_pressure;Samples;Min_cycle;Max_cycle;Signal;HPM_P1;HPM_P2
2023/09/18 00:00:49;;;;;;;19.98;17.90;;;19.90;99.90;;;;;;4965004;28;20023;-77
2023/09/18 00:03:20;;;;;;;19.60;17.05;;;19.90;99.90;;;;;;4962077;28;20027;-76
2023/09/18 00:05:47;;;;;;;16.90;15.15;;;19.90;99.90;;;;;;4965000;28;20434;-77
2023/09/18 00:08:14;;;;;;;22.88;19.00;;;19.90;99.90;;;;;;4943436;28;20146;-76
2023/09/18 00:10:40;;;;;;;18.42;16.20;;;19.90;99.90;;;;;;4956651;28;20019;-77
2023/09/18 00:13:06;;;;;;;20.25;18.15;;;19.90;99.90;;;;;;4956558;28;20085;-77
2023/09/18 00:15:32;;;;;;;18.13;16.23;;;19.90;99.90;;;;;;4960001;28;20047;-76
2023/09/18 00:17:57;;;;;;;22.88;19.40;;;19.90;99.90;;;;;;4964340;28;20034;-76
2023/09/18 00:20:26;;;;;;;19.10;16.05;;;19.90;99.90;;;;;;4959036;28;20478;-77
2023/09/18 00:22:55;;;;;;;27.30;18.55;;;19.90;99.90;;;;;;4956291;28;20031;-76
2023/09/18 00:25:22;;;;;;;21.60;17.38;;;19.90;99.90;;;;;;4962628;28;20788;-76
2023/09/18 00:27:48;;;;;;;18.48;16.58;;;19.90;99.90;;;;;;4963702;28;20879;-76
2023/09/18 00:30:14;;;;;;;18.05;15.80;;;19.90;99.90;;;;;;4950792;28;20081;-76
2023/09/18 00:32:40;;;;;;;21.63;17.50;;;19.90;99.90;;;;;;4962023;28;20129;-76
2023/09/18 00:35:06;;;;;;;16.13;14.40;;;19.90;99.90;;;;;;4956260;28;20019;-76
2023/09/18 00:37:31;;;;;;;21.13;18.92;;;19.90;99.90;;;;;;4960367;28;20035;-77
2023/09/18 00:39:57;;;;;;;23.52;19.33;;;19.90;99.90;;;;;;4963902;28;20055;-77
2023/09/18 00:42:24;;;;;;;20.92;15.50;;;19.90;99.90;;;;;;4957913;28;20031;-77
2023/09/18 00:44:50;;;;;;;22.65;16.83;;;19.90;99.90;;;;;;4956201;28;20521;-76
2023/09/18 00:47:16;;;;;;;18.30;14.73;;;19.90;99.90;;;;;;4946541;29;20027;-76
2023/09/18 00:49:45;;;;;;;21.40;17.80;;;19.90;99.90;;;;;;4944168;28;20019;-77
2023/09/18 00:52:11;;;;;;;17.52;15.68;;;19.90;99.90;;;;;;4956052;28;20102;-76
2023/09/18 00:54:40;;;;;;;23.80;18.98;;;19.90;99.90;;;;;;4958911;28;20073;-76
2023/09/18 00:57:06;;;;;;;17.45;15.65;;;19.80;99.90;;;;;;4964017;28;20023;-76
2023/09/18 00:59:33;;;;;;;16.98;14.65;;;19.90;99.90;;;;;;4958523;28;20035;-76
2023/09/18 01:01:59;;;;;;;20.02;17.48;;;19.90;99.90;;;;;;4956082;28;20055;-76
2023/09/18 01:04:26;;;;;;;21.35;19.05;;;19.90;99.90;;;;;;4965875;28;20440;-77
2023/09/18 01:06:52;;;;;;;17.23;15.43;;;19.90;99.90;;;;;;4939388;29;20145;-77
2023/09/18 01:09:18;;;;;;;17.77;15.32;;;19.80;99.90;;;;;;4963104;28;20098;-77
2023/09/18 01:11:58;;;;;;;17.77;15.88;;;19.80;99.90;;;;;;4953770;28;20019;-76
2023/09/18 01:14:48;;;;;;;20.60;18.40;;;19.80;99.90;;;;;;4963247;28;20058;-77
2023/09/18 01:17:15;;;;;;;24.00;17.48;;;19.90;99.90;;;;;;4960570;28;20041;-74
2023/09/18 01:19:46;;;;;;;20.08;15.43;;;19.90;99.90;;;;;;4955265;28;20042;-74
2023/09/18 01:22:15;;;;;;;23.27;18.40;;;19.90;99.90;;;;;;4959938;28;20078;-75
2023/09/18 01:24:41;;;;;;;17.10;15.35;;;19.90;99.90;;;;;;4962885;28;20027;-76
2023/09/18 01:27:18;;;;;;;21.10;16.92;;;19.80;99.90;;;;;;4957760;28;20042;-75
2023/09/18 01:29:48;;;;;;;23.95;20.02;;;19.80;99.90;;;;;;4951967;28;20082;-77
2023/09/18 01:32:15;;;;;;;20.00;17.88;;;19.80;99.90;;;;;;4935259;28;20080;-77
2023/09/18 01:34:49;;;;;;;18.52;16.52;;;19.80;99.90;;;;;;4934495;28;20024;-77
2023/09/18 01:37:22;;;;;;;19.83;16.38;;;19.80;99.90;;;;;;4958663;28;20031;-77
2023/09/18 01:39:50;;;;;;;21.80;17.65;;;19.80;99.90;;;;;;4946582;28;20058;-77
2023/09/18 01:42:16;;;;;;;19.42;15.43;;;19.80;99.90;;;;;;4937811;28;20027;-77
2023/09/18 01:44:43;;;;;;;24.27;17.80;;;19.80;99.90;;;;;;4956881;28;20150;-76
2023/09/18 01:47:13;;;;;;;20.52;17.70;;;19.80;99.90;;;;;;4961477;28;20027;-77
2023/09/18 01:49:39;;;;;;;22.25;17.80;;;19.80;99.90;;;;;;4949391;28;20074;-77
2023/09/18 01:52:07;;;;;;;19.95;17.85;;;19.80;99.90;;;;;;4954561;28;20459;-76
2023/09/18 01:54:34;;;;;;;19.85;16.52;;;19.80;99.90;;;;;;4958757;28;20073;-77
2023/09/18 01:57:00;;;;;;;21.30;18.08;;;19.80;99.90;;;;;;4962940;28;20035;-77
2023/09/18 01:59:26;;;;;;;17.50;15.25;;;19.80;99.90;;;;;;4956745;28;20070;-77
2023/09/18 02:01:53;;;;;;;21.25;17.30;;;19.80;99.90;;;;;;4955003;28;20521;-76
2023/09/18 02:04:19;;;;;;;20.63;16.85;;;19.80;99.90;;;;;;4943040;28;20033;-77
2023/09/18 02:06:47;;;;;;;22.85;16.40;;;19.80;99.90;;;;;;4971261;28;20063;-76
2023/09/18 02:09:13;;;;;;;25.35;17.95;;;19.80;99.90;;;;;;4962549;28;20070;-77
2023/09/18 02:11:41;;;;;;;19.83;17.45;;;19.70;99.90;;;;;;4952725;28;20150;-77
2023/09/18 02:14:07;;;;;;;21.50;18.77;;;19.70;99.90;;;;;;4959963;28;20022;-77
2023/09/18 02:16:35;;;;;;;19.77;16.98;;;19.70;99.90;;;;;;4949750;28;20031;-77
2023/09/18 02:19:02;;;;;;;21.30;18.02;;;19.70;99.90;;;;;;4959552;28;20604;-77
2023/09/18 02:21:28;;;;;;;23.50;17.73;;;19.70;99.90;;;;;;4954351;28;20242;-76
2023/09/18 02:23:55;;;;;;;20.83;17.52;;;19.80;99.90;;;;;;4958790;28;20529;-76
2023/09/18 02:26:22;;;;;;;20.63;17.67;;;19.70;99.90;;;;;;4962299;28;20058;-77
2023/09/18 02:28:48;;;;;;;22.52;19.67;;;19.80;99.90;;;;;;4954552;28;20023;-77
2023/09/18 02:31:14;;;;;;;20.40;17.42;;;19.80;99.90;;;;;;4963748;28;20043;-77
2023/09/18 02:33:40;;;;;;;19.92;17.73;;;19.80;99.90;;;;;;4962263;28;20077;-77
2023/09/18 02:36:06;;;;;;;20.02;17.85;;;19.80;99.90;;;;;;4960278;28;20054;-77
2023/09/18 02:38:33;;;;;;;21.60;17.48;;;19.80;99.90;;;;;;4954115;28;20043;-77
2023/09/18 02:41:00;;;;;;;26.02;19.35;;;19.80;99.90;;;;;;4958198;28;20089;-76
2023/09/18 02:43:26;;;;;;;19.23;17.23;;;19.80;99.90;;;;;;4962055;28;20062;-77
2023/09/18 02:45:52;;;;;;;22.67;17.83;;;19.80;99.90;;;;;;4948652;28;20027;-77
2023/09/18 02:48:18;;;;;;;19.88;17.73;;;19.80;99.90;;;;;;4961597;28;20039;-77
2023/09/18 02:50:44;;;;;;;20.15;16.98;;;19.80;99.90;;;;;;4954876;28;20015;-76
2023/09/18 02:53:21;;;;;;;23.55;18.65;;;19.80;99.90;;;;;;4955826;28;20081;-77
2023/09/18 02:55:52;;;;;;;21.92;16.88;;;19.80;99.90;;;;;;4941088;28;20027;-77
2023/09/18 02:58:21;;;;;;;21.67;17.20;;;19.80;99.90;;;;;;4958558;28;20035;-77
2023/09/18 03:00:49;;;;;;;21.17;17.77;;;19.80;99.90;;;;;;4950098;29;20129;-77
2023/09/18 03:03:16;;;;;;;21.33;17.27;;;19.80;99.90;;;;;;4954037;28;20031;-77
2023/09/18 03:05:42;;;;;;;21.02;17.38;;;19.80;99.90;;;;;;4966222;28;20022;-77
2023/09/18 03:08:09;;;;;;;25.85;17.77;;;19.80;99.90;;;;;;4961667;28;20027;-77
2023/09/18 03:10:35;;;;;;;20.95;17.58;;;19.80;99.90;;;;;;4958006;28;20029;-76
2023/09/18 03:13:02;;;;;;;20.85;17.75;;;19.80;99.90;;;;;;4958228;28;20050;-76
2023/09/18 03:15:28;;;;;;;20.58;17.30;;;19.80;99.90;;;;;;4961317;28;20094;-76
2023/09/18 03:17:55;;;;;;;18.90;16.98;;;19.80;99.90;;;;;;4965709;28;20074;-76
2023/09/18 03:20:27;;;;;;;24.98;17.27;;;19.80;99.90;;;;;;4959797;28;20034;-77
2023/09/18 03:22:55;;;;;;;22.73;17.08;;;19.80;99.90;;;;;;4958102;28;20268;-77
2023/09/18 03:25:21;;;;;;;20.45;15.82;;;19.80;99.90;;;;;;4946519;29;20027;-77
2023/09/18 03:27:47;;;;;;;20.73;16.08;;;19.80;99.90;;;;;;4964907;28;20045;-77
2023/09/18 03:30:15;;;;;;;17.95;15.27;;;19.80;99.90;;;;;;4957210;28;20110;-77
2023/09/18 03:32:42;;;;;;;20.52;16.33;;;19.80;99.90;;;;;;4959916;28;20023;-76
2023/09/18 03:35:15;;;;;;;20.17;15.77;;;19.80;99.90;;;;;;4965062;28;20805;-77
2023/09/18 03:37:41;;;;;;;18.23;15.57;;;19.80;99.90;;;;;;4962301;28;20031;-77
2023/09/18 03:40:08;;;;;;;17.80;15.88;;;19.80;99.90;;;;;;4954151;28;20521;-77
2023/09/18 03:42:34;;;;;;;17.83;15.43;;;19.80;99.90;;;;;;4960613;28;20038;-77
2023/09/18 03:45:00;;;;;;;18.75;15.85;;;19.80;99.90;;;;;;4957043;28;20398;-77
2023/09/18 03:47:25;;;;;;;21.50;16.90;;;19.80;99.90;;;;;;4964179;28;20027;-77
2023/09/18 03:49:51;;;;;;;18.88;15.48;;;19.80;99.90;;;;;;4946660;28;20149;-77
2023/09/18 03:52:17;;;;;;;20.05;16.83;;;19.80;99.90;;;;;;4957543;28;20026;-77
2023/09/18 03:54:42;;;;;;;21.40;16.63;;;19.80;99.90;;;;;;4959886;28;20504;-77
2023/09/18 03:57:08;;;;;;;17.40;14.63;;;19.80;99.90;;;;;;4954284;28;20077;-77
2023/09/18 03:59:34;;;;;;;21.33;16.92;;;19.80;99.90;;;;;;4961783;28;20140;-77
2023/09/18 04:01:59;;;;;;;20.55;15.93;;;19.80;99.90;;;;;;4964835;28;20026;-76
2023/09/18 04:04:25;;;;;;;18.65;15.30;;;19.80;99.90;;;;;;4957522;28;20026;-77
2023/09/18 04:06:51;;;;;;;17.25;14.85;;;19.80;99.90;;;;;;4940642;29;20035;-77
2023/09/18 04:09:17;;;;;;;18.63;15.68;;;19.80;99.90;;;;;;4963909;28;20024;-76
2023/09/18 04:11:43;;;;;;;17.63;14.40;;;19.80;99.90;;;;;;4954973;28;20106;-78
2023/09/18 04:14:09;;;;;;;16.38;13.85;;;19.80;99.90;;;;;;4963472;28;20105;-77
2023/09/18 04:16:35;;;;;;;21.13;14.95;;;19.80;99.90;;;;;;4956681;28;20030;-77
2023/09/18 04:19:04;;;;;;;17.77;14.73;;;19.80;99.90;;;;;;4941861;29;20042;-77
2023/09/18 04:21:30;;;;;;;19.08;14.30;;;19.80;99.90;;;;;;4964606;28;20477;-77
2023/09/18 04:23:58;;;;;;;18.63;14.45;;;19.80;99.90;;;;;;4956139;28;20031;-77
2023/09/18 04:26:29;;;;;;;15.48;13.27;;;19.80;99.90;;;;;;4964737;28;20039;-77
2023/09/18 04:28:57;;;;;;;16.08;13.30;;;19.90;99.90;;;;;;4958830;28;20042;-77
2023/09/18 04:31:23;;;;;;;21.15;12.00;;;19.80;99.90;;;;;;4956507;28;20031;-77
2023/09/18 04:33:49;;;;;;;13.55;10.10;;;19.80;99.90;;;;;;4963157;28;20401;-79
2023/09/18 04:36:15;;;;;;;17.00;9.98;;;19.80;99.90;;;;;;4963819;28;20521;-76
2023/09/18 04:38:41;;;;;;;13.30;9.13;;;19.80;99.90;;;;;;4951137;28;20521;-76
2023/09/18 04:41:07;;;;;;;19.48;9.18;;;19.80;99.90;;;;;;4947759;29;20055;-77
2023/09/18 04:43:34;;;;;;;16.63;8.25;;;19.80;99.90;;;;;;4963965;28;20102;-77
2023/09/18 04:46:04;;;;;;;11.90;7.68;;;19.90;99.90;;;;;;4959598;28;20518;-77
2023/09/18 04:48:30;;;;;;;13.02;8.07;;;19.90;99.90;;;;;;4956067;28;20035;-76
2023/09/18 04:50:56;;;;;;;14.65;7.97;;;19.90;99.90;;;;;;4962468;28;20497;-76
2023/09/18 04:53:22;;;;;;;15.15;8.32;;;19.90;99.90;;;;;;4964020;28;20038;-75
2023/09/18 04:55:51;;;;;;;14.65;7.22;;;20.00;99.90;;;;;;4955765;28;20023;-75
2023/09/18 04:58:17;;;;;;;20.08;7.80;;;20.00;99.90;;;;;;4957761;28;20738;-75
2023/09/18 05:00:43;;;;;;;11.32;6.55;;;20.00;99.90;;;;;;4963245;28;20023;-75
2023/09/18 05:03:10;;;;;;;13.05;7.90;;;20.10;99.90;;;;;;4960338;28;20061;-76
2023/09/18 05:05:36;;;;;;;13.25;7.05;;;20.10;99.90;;;;;;4953966;28;20873;-75
2023/09/18 05:08:07;;;;;;;14.10;5.80;;;20.10;99.90;;;;;;4960827;28;20706;-75
2023/09/18 05:10:33;;;;;;;;;;;20.10;99.90;;;;;;4954311;28;20035;-75
2023/09/18 05:12:59;;;;;;;15.00;6.63;;;20.10;99.90;;;;;;4955676;28;20720;-76
2023/09/18 05:15:35;;;;;;;13.18;7.75;;;20.10;99.90;;;;;;4959935;28;20031;-76
2023/09/18 05:18:01;;;;;;;13.43;8.02;;;20.20;99.90;;;;;;4962502;28;20050;-75
2023/09/18 05:20:28;;;;;;;12.30;7.32;;;20.20;99.90;;;;;;4957627;28;20505;-75
2023/09/18 05:22:55;;;;;;;13.13;6.93;;;20.20;99.90;;;;;;4955537;28;20069;-75
2023/09/18 05:25:23;;;;;;;11.70;7.47;;;20.20;99.90;;;;;;4961798;28;20118;-75
2023/09/18 05:27:55;;;;;;;13.43;7.97;;;20.30;99.90;;;;;;4962946;28;20101;-76
2023/09/18 05:30:27;;;;;;;14.93;7.60;;;20.30;99.90;;;;;;4942688;28;20142;-76
2023/09/18 05:32:57;;;;;;;10.75;7.88;;;20.30;99.90;;;;;;4956099;28;20034;-76
2023/09/18 05:35:23;;;;;;;16.50;8.88;;;20.30;99.90;;;;;;4945269;28;20014;-76
2023/09/18 05:37:56;;;;;;;14.95;8.30;;;20.30;99.90;;;;;;4955409;28;20042;-75
2023/09/18 05:40:22;;;;;;;12.05;8.10;;;20.30;99.90;;;;;;4952619;28;20051;-76
2023/09/18 05:42:48;;;;;;;15.30;7.53;;;20.30;99.90;;;;;;4955663;28;20039;-76
2023/09/18 05:45:17;;;;;;;13.25;8.52;;;20.30;99.90;;;;;;4948887;29;20030;-76
2023/09/18 05:47:43;;;;;;;20.63;8.50;;;20.30;99.90;;;;;;4949234;28;20031;-75
2023/09/18 05:50:09;;;;;;;14.82;8.45;;;20.30;99.90;;;;;;4961547;28;20070;-76
2023/09/18 05:52:35;;;;;;;13.43;8.48;;;20.30;99.90;;;;;;4956317;28;20027;-75
2023/09/18 05:55:04;;;;;;;11.93;7.68;;;20.30;99.90;;;;;;4959612;28;20026;-75
2023/09/18 05:57:30;;;;;;;12.82;9.07;;;20.40;99.90;;;;;;4944676;28;20027;-75
2023/09/18 05:59:56;;;;;;;14.88;9.55;;;20.30;99.90;;;;;;4960437;28;20553;-76
2023/09/18 06:02:22;;;;;;;17.58;10.10;;;20.30;99.90;;;;;;4960248;28;20027;-77
2023/09/18 06:04:48;;;;;;;16.02;8.60;;;20.30;99.90;;;;;;4958593;28;20024;-75
2023/09/18 06:07:14;;;;;;;13.65;9.85;;;20.30;99.90;;;;;;4956913;28;20541;-76
2023/09/18 06:09:40;;;;;;;13.20;9.45;;;20.30;99.90;;;;;;4952003;28;20728;-76
2023/09/18 06:12:07;;;;;;;15.32;8.05;;;20.30;99.90;;;;;;4952680;28;20046;-76
2023/09/18 06:14:34;;;;;;;14.07;8.40;;;20.30;99.90;;;;;;4958084;28;20157;-76
2023/09/18 06:17:01;;;;;;;10.82;7.43;;;20.30;99.90;;;;;;4959906;28;20468;-75
2023/09/18 06:19:26;;;;;;;13.65;8.35;;;20.30;99.90;;;;;;4962199;28;20053;-75
2023/09/18 06:21:52;;;;;;;14.82;8.77;;;20.20;99.90;;;;;;4949827;28;20534;-76
2023/09/18 06:24:17;;;;;;;11.48;7.88;;;20.20;99.90;;;;;;4952984;28;20118;-77
2023/09/18 06:26:43;;;;;;;13.48;7.82;;;20.30;99.90;;;;;;4955894;28;20489;-78
2023/09/18 06:29:09;;;;;;;15.73;8.73;;;20.20;99.90;;;;;;4950835;28;20031;-76
2023/09/18 06:31:35;;;;;;;15.27;8.70;;;20.30;99.90;;;;;;4949160;28;20034;-76
2023/09/18 06:34:01;;;;;;;11.98;8.45;;;20.30;99.90;;;;;;4947231;28;20482;-76
2023/09/18 06:36:26;;;;;;;12.52;7.72;;;20.30;99.90;;;;;;4961147;28;20052;-77
2023/09/18 06:38:53;;;;;;;10.75;8.27;;;20.30;99.90;;;;;;4965404;28;20101;-77
2023/09/18 06:41:18;;;;;;;11.40;7.88;;;20.30;99.90;;;;;;4961602;28;20047;-77
2023/09/18 06:43:44;;;;;;;13.80;7.80;;;20.30;99.90;;;;;;4956446;28;20038;-76
2023/09/18 06:46:10;;;;;;;15.60;8.35;;;20.30;99.90;;;;;;4956953;28;20094;-77
2023/09/18 06:48:36;;;;;;;12.52;7.57;;;20.30;99.90;;;;;;4957763;28;20642;-77
2023/09/18 06:51:02;;;;;;;11.45;6.55;;;20.30;99.90;;;;;;4957931;28;20028;-76
2023/09/18 06:53:27;;;;;;;8.70;6.13;;;20.30;99.90;;;;;;4961974;28;20031;-77
2023/09/18 06:55:54;;;;;;;8.77;5.30;;;20.30;99.90;;;;;;4953964;28;20034;-76
2023/09/18 06:58:20;;;;;;;10.45;5.57;;;20.30;99.90;;;;;;4940180;29;20023;-75
2023/09/18 07:00:46;;;;;;;9.07;5.00;;;20.30;99.90;;;;;;4960877;28;20046;-76
2023/09/18 07:03:12;;;;;;;6.07;4.05;;;20.30;99.90;;;;;;4948758;28;20035;-77
2023/09/18 07:05:39;;;;;;;6.68;4.13;;;20.30;99.90;;;;;;4932352;28;20056;-76
2023/09/18 07:08:09;;;;;;;6.88;4.20;;;20.30;99.90;;;;;;4938281;28;20094;-76
2023/09/18 07:10:35;;;;;;;6.40;3.75;;;20.30;99.90;;;;;;4959468;28;20035;-76
2023/09/18 07:13:01;;;;;;;5.95;3.17;;;20.30;99.90;;;;;;4945187;28;20192;-75
2023/09/18 07:15:26;;;;;;;5.80;3.20;;;20.40;99.90;;;;;;4924637;28;20027;-75
2023/09/18 07:17:52;;;;;;;4.72;2.97;;;20.30;99.90;;;;;;4946720;28;20878;-75
2023/09/18 07:20:18;;;;;;;5.80;3.22;;;20.40;99.90;;;;;;4943911;28;20518;-76
2023/09/18 07:22:47;;;;;;;6.50;2.90;;;20.40;99.90;;;;;;4940184;28;20482;-75
2023/09/18 07:25:13;;;;;;;5.20;2.90;;;20.40;99.90;;;;;;4939690;28;20086;-77
2023/09/18 07:27:43;;;;;;;4.63;2.70;;;20.40;99.90;;;;;;4943120;28;20027;-78
2023/09/18 07:30:16;;;;;;;4.63;3.00;;;20.40;99.90;;;;;;4944987;28;20047;-77
2023/09/18 07:32:42;;;;;;;5.28;2.60;;;20.40;99.90;;;;;;4958998;28;20027;-77
2023/09/18 07:35:09;;;;;;;6.15;2.60;;;20.40;99.90;;;;;;4953333;28;20019;-76
2023/09/18 07:37:35;;;;;;;5.53;2.53;;;20.40;99.90;;;;;;4957482;28;20046;-76
2023/09/18 07:40:06;;;;;;;3.90;2.28;;;20.40;99.90;;;;;;4961113;28;20105;-77
2023/09/18 07:42:32;;;;;;;7.15;2.78;;;20.40;99.90;;;;;;4956404;28;20521;-75
2023/09/18 07:45:01;;;;;;;4.85;2.65;;;20.40;99.90;;;;;;4949731;29;20070;-75
2023/09/18 07:47:27;;;;;;;4.03;2.63;;;20.40;99.90;;;;;;4950901;29;20027;-76
2023/09/18 07:49:54;;;;;;;5.95;1.98;;;20.40;99.90;;;;;;4952068;28;20380;-76
2023/09/18 07:52:20;;;;;;;4.72;2.35;;;20.40;99.90;;;;;;4956613;28;20019;-75
2023/09/18 07:54:46;;;;;;;4.97;2.47;;;20.40;99.90;;;;;;4959639;28;20022;-76
2023/09/18 07:57:11;;;;;;;5.15;2.25;;;20.40;99.90;;;;;;4951813;28;20015;-76
2023/09/18 07:59:38;;;;;;;5.43;2.63;;;20.40;99.90;;;;;;4952339;28;20031;-76
2023/09/18 08:02:05;;;;;;;3.40;2.10;;;20.40;99.90;;;;;;4952791;28;20031;-76
2023/09/18 08:04:33;;;;;;;3.72;2.10;;;20.40;99.90;;;;;;4950853;28;20559;-75
2023/09/18 08:07:00;;;;;;;4.07;2.13;;;20.40;99.90;;;;;;4956967;28;20031;-75
2023/09/18 08:09:37;;;;;;;6.72;2.53;;;20.40;99.90;;;;;;4962712;28;20027;-76
2023/09/18 08:12:06;;;;;;;4.60;2.50;;;20.40;99.90;;;;;;4954764;28;20050;-76
2023/09/18 08:14:34;;;;;;;5.35;2.70;;;20.40;99.90;;;;;;4963986;28;20030;-76
2023/09/18 08:17:01;;;;;;;5.72;2.15;;;20.40;99.90;;;;;;4953000;28;20023;-75
2023/09/18 08:19:27;;;;;;;5.15;2.40;;;20.40;99.90;;;;;;4962494;28;20029;-77
2023/09/18 08:21:54;;;;;;;4.25;2.45;;;20.40;99.90;;;;;;4957458;28;20094;-76
2023/09/18 08:24:20;;;;;;;5.47;2.30;;;20.40;99.90;;;;;;4957269;28;20031;-76
2023/09/18 08:26:46;;;;;;;6.45;2.50;;;20.40;99.90;;;;;;4964319;28;20023;-77
2023/09/18 08:29:13;;;;;;;3.13;2.03;;;20.40;99.90;;;;;;4933501;29;20408;-77
2023/09/18 08:31:38;;;;;;;2.88;1.70;;;20.40;99.90;;;;;;4963705;28;20079;-75
2023/09/18 08:34:04;;;;;;;7.32;2.40;;;20.40;99.90;;;;;;4959122;28;20038;-76
2023/09/18 08:36:31;;;;;;;5.57;2.53;;;20.40;99.90;;;;;;4959558;28;20027;-76
2023/09/18 08:38:58;;;;;;;6.18;2.13;;;20.40;99.90;;;;;;4941247;28;20054;-76
2023/09/18 08:41:27;;;;;;;5.18;2.40;;;20.40;99.90;;;;;;4950970;28;20580;-77
2023/09/18 08:43:59;;;;;;;4.93;2.10;;;20.40;99.90;;;;;;4949727;28;20034;-75
2023/09/18 08:46:25;;;;;;;2.85;1.98;;;20.50;99.90;;;;;;4964692;28;20054;-78
2023/09/18 08:48:52;;;;;;;3.55;2.13;;;20.50;99.90;;;;;;4964667;28;20042;-76
2023/09/18 08:51:18;;;;;;;3.85;2.08;;;20.60;99.90;;;;;;4954738;28;20019;-77
2023/09/18 08:53:45;;;;;;;3.28;2.08;;;20.60;99.90;;;;;;4956614;28;20066;-76
2023/09/18 08:56:13;;;;;;;7.95;2.08;;;20.60;99.90;;;;;;4951406;28;20016;-79
2023/09/18 08:58:42;;;;;;;4.32;2.20;;;20.60;99.90;;;;;;4953589;28;20028;-79
2023/09/18 09:01:09;;;;;;;2.50;1.80;;;20.60;99.90;;;;;;4959646;28;20030;-78
2023/09/18 09:03:39;;;;;;;4.22;1.90;;;20.60;99.90;;;;;;4955565;28;20441;-78
2023/09/18 09:06:09;;;;;;;3.10;1.80;;;20.60;99.90;;;;;;4940270;28;20126;-77
2023/09/18 09:08:36;;;;;;;2.83;1.83;;;20.60;99.90;;;;;;4952947;28;20130;-77
2023/09/18 09:11:02;;;;;;;6.53;2.47;;;20.60;99.90;;;;;;4953787;28;20027;-78
2023/09/18 09:13:28;;;;;;;7.03;2.10;;;20.60;99.90;;;;;;4939609;28;20034;-74
2023/09/18 09:15:56;;;;;;;4.93;2.17;;;20.60;99.90;;;;;;4965960;28;20050;-74
2023/09/18 09:18:28;;;;;;;8.40;2.45;;;20.70;99.90;;;;;;4962639;28;20478;-75
2023/09/18 09:21:04;;;;;;;5.43;2.15;;;20.70;99.90;;;;;;4950992;28;20517;-75
2023/09/18 09:23:49;;;;;;;6.47;2.20;;;20.70;99.90;;;;;;4940023;29;20524;-76
2023/09/18 09:26:20;;;;;;;2.50;1.90;;;20.70;99.90;;;;;;4952607;28;20126;-76
2023/09/18 09:28:48;;;;;;;4.72;2.20;;;20.70;99.90;;;;;;4943337;28;20018;-76
2023/09/18 09:31:27;;;;;;;4.07;2.00;;;20.80;99.90;;;;;;4951569;28;20497;-77
2023/09/18 09:33:53;;;;;;;3.22;2.22;;;20.70;99.90;;;;;;4950343;28;20030;-76
2023/09/18 09:36:20;;;;;;;5.18;2.15;;;20.70;99.90;;;;;;4948650;29;20019;-77
2023/09/18 09:38:46;;;;;;;2.67;1.70;;;20.80;99.90;;;;;;4964811;28;20019;-75
2023/09/18 09:41:15;;;;;;;4.80;2.20;;;20.90;99.90;;;;;;4959915;28;20626;-78
2023/09/18 09:43:44;;;;;;;4.47;1.80;;;21.00;99.90;;;;;;4960715;28;20101;-78
2023/09/18 09:46:21;;;;;;;4.60;2.10;;;21.00;99.90;;;;;;4938849;29;20114;-77
2023/09/18 09:49:04;;;;;;;5.55;2.13;;;21.10;99.90;;;;;;4958040;28;20389;-75
2023/09/18 09:51:31;;;;;;;8.00;2.00;;;21.10;99.90;;;;;;4935066;29;20123;-79
2023/09/18 09:53:58;;;;;;;3.78;1.90;;;21.20;99.90;;;;;;4953250;28;20552;-77
2023/09/18 09:56:46;;;;;;;4.78;1.92;;;21.40;99.90;;;;;;4949457;28;20521;-78
2023/09/18 09:59:14;;;;;;;3.13;1.60;;;21.40;99.90;;;;;;4925027;28;20037;-77
2023/09/18 10:01:41;;;;;;;4.82;1.88;;;21.50;99.90;;;;;;4966025;28;20611;-76
2023/09/18 10:04:13;;;;;;;3.28;2.05;;;21.50;99.90;;;;;;4963785;28;20019;-76
2023/09/18 10:06:42;;;;;;;4.05;1.73;;;21.60;99.90;;;;;;4961358;28;20035;-77
2023/09/18 10:09:10;;;;;;;3.28;2.03;;;21.70;99.90;;;;;;4944542;29;20027;-76
2023/09/18 10:11:44;;;;;;;4.35;1.75;;;21.80;99.90;;;;;;4952511;28;20027;-76
2023/09/18 10:14:16;;;;;;;4.82;2.00;;;21.90;99.90;;;;;;4926436;28;20396;-75
2023/09/18 10:16:50;;;;;;;2.10;1.58;;;22.00;99.90;;;;;;4947582;28;20494;-76
2023/09/18 10:19:52;;;;;;;8.68;2.17;;;22.00;99.90;;;;;;4947807;28;20114;-76
2023/09/18 10:22:32;;;;;;;3.90;1.77;;;22.10;99.90;;;;;;4942398;28;20035;-75
2023/09/18 10:25:12;;;;;;;5.57;1.65;;;22.10;99.90;;;;;;4948043;28;20034;-73
2023/09/18 10:27:40;;;;;;;7.50;2.45;;;22.00;99.90;;;;;;4941477;28;20110;-75
2023/09/18 10:30:11;;;;;;;3.88;2.20;;;22.00;99.90;;;;;;4954237;28;20030;-74
2023/09/18 10:32:40;;;;;;;6.47;2.42;;;21.90;99.90;;;;;;4946829;28;20023;-74
2023/09/18 10:35:08;;;;;;;5.10;2.60;;;21.90;99.90;;;;;;4930179;28;20153;-76
2023/09/18 10:37:34;;;;;;;4.82;2.20;;;21.90;99.90;;;;;;4944925;28;20514;-75
2023/09/18 10:40:00;;;;;;;5.78;2.22;;;21.90;99.90;;;;;;4933870;28;20055;-74
2023/09/18 10:42:30;;;;;;;4.95;2.05;;;21.90;99.90;;;;;;4946069;28;20155;-74
2023/09/18 10:44:56;;;;;;;3.90;2.03;;;21.90;99.90;;;;;;4946351;28;20027;-75
2023/09/18 10:47:22;;;;;;;5.30;2.33;;;21.90;99.90;;;;;;4951575;28;20496;-75
2023/09/18 10:49:50;;;;;;;7.43;2.03;;;21.90;99.90;;;;;;4948850;28;20031;-76
2023/09/18 10:52:16;;;;;;;8.48;2.30;;;22.00;99.90;;;;;;4949449;28;20031;-75
2023/09/18 10:54:42;;;;;;;3.97;2.03;;;22.00;99.90;;;;;;4943754;28;20402;-77
2023/09/18 10:57:07;;;;;;;5.43;2.42;;;22.00;99.90;;;;;;4928734;28;20030;-76
2023/09/18 10:59:33;;;;;;;4.10;2.17;;;22.00;99.90;;;;;;4947518;28;20023;-73
2023/09/18 11:02:06;;;;;;;6.10;2.35;;;22.00;99.90;;;;;;4936120;28;20031;-75
2023/09/18 11:04:33;;;;;;;5.32;2.08;;;22.00;99.90;;;;;;4931837;28;20137;-76
2023/09/18 11:06:59;;;;;;;5.00;2.75;;;22.00;99.90;;;;;;4954358;28;20105;-76
2023/09/18 11:09:26;;;;;;;4.22;2.10;;;22.10;99.90;;;;;;4938713;28;20022;-76
2023/09/18 11:12:00;;;;;;;5.25;2.30;;;22.20;99.90;;;;;;4940751;28;20102;-76
2023/09/18 11:14:56;;;;;;;4.22;2.15;;;22.30;99.90;;;;;;4923377;28;20117;-77
2023/09/18 11:17:39;;;;;;;3.25;1.73;;;22.60;99.90;;;;;;4934679;28;20365;-75
2023/09/18 11:20:15;;;;;;;6.13;2.17;;;22.80;99.90;;;;;;4944279;28;20520;-76
2023/09/18 11:22:48;;;;;;;5.70;2.22;;;22.90;99.90;;;;;;4949366;28;20125;-76
2023/09/18 11:25:49;;;;;;;4.75;1.92;;;23.00;99.90;;;;;;4954613;28;20113;-73
2023/09/18 11:28:21;;;;;;;4.05;2.03;;;23.10;99.90;;;;;;4891166;29;20033;-76
2023/09/18 11:30:58;;;;;;;3.47;2.00;;;23.20;99.90;;;;;;4900257;29;20154;-76
2023/09/18 11:33:31;;;;;;;4.25;1.98;;;23.20;99.90;;;;;;4904405;29;20470;-76
2023/09/18 11:36:03;;;;;;;4.93;2.38;;;23.20;99.90;;;;;;4893500;29;20500;-74
2023/09/18 11:38:29;;;;;;;4.15;1.98;;;23.20;99.90;;;;;;4876197;29;20225;-76
2023/09/18 11:40:55;;;;;;;7.25;2.80;;;23.10;99.90;;;;;;4906999;29;20907;-74
2023/09/18 11:43:29;;;;;;;4.13;2.00;;;23.00;99.90;;;;;;4914522;29;20106;-75
2023/09/18 11:45:56;;;;;;;5.20;2.35;;;22.90;99.90;;;;;;4927502;29;20035;-76
2023/09/18 11:48:27;;;;;;;6.68;3.13;;;22.70;99.90;;;;;;4926845;29;20028;-76
2023/09/18 11:50:54;;;;;;;6.47;2.80;;;22.60;99.90;;;;;;4900031;29;20556;-76
2023/09/18 11:53:21;;;;;;;5.47;2.33;;;22.60;99.90;;;;;;4914742;29;20131;-76
2023/09/18 11:55:47;;;;;;;7.00;2.80;;;22.50;99.90;;;;;;4917189;29;20052;-74
2023/09/18 11:58:14;;;;;;;8.15;2.88;;;22.40;99.90;;;;;;4923484;29;20032;-74
2023/09/18 12:00:46;;;;;;;8.30;2.90;;;22.40;99.90;;;;;;4905865;29;20027;-74
2023/09/18 12:03:26;;;;;;;3.70;2.60;;;22.40;99.90;;;;;;4952379;28;20047;-73
2023/09/18 12:05:59;;;;;;;5.25;2.53;;;22.40;99.90;;;;;;4961315;28;20015;-75
2023/09/18 12:08:29;;;;;;;6.22;2.55;;;22.40;99.90;;;;;;4943779;28;20059;-73
2023/09/18 12:10:55;;;;;;;4.55;2.75;;;22.50;99.90;;;;;;4954702;28;20023;-76
2023/09/18 12:13:21;;;;;;;8.18;2.55;;;22.60;99.90;;;;;;4948562;28;20027;-74
2023/09/18 12:15:49;;;;;;;4.25;2.45;;;22.70;99.90;;;;;;4962981;28;20046;-74
2023/09/18 12:18:15;;;;;;;5.97;2.75;;;22.80;99.90;;;;;;4957441;28;20027;-75
2023/09/18 12:20:51;;;;;;;6.28;2.90;;;22.80;99.90;;;;;;4960253;28;20037;-75
2023/09/18 12:23:20;;;;;;;5.55;2.63;;;22.90;99.90;;;;;;4954765;28;20042;-77
2023/09/18 12:25:56;;;;;;;6.38;3.00;;;23.00;99.90;;;;;;4958291;28;20078;-73
2023/09/18 12:28:22;;;;;;;4.60;2.70;;;23.00;99.90;;;;;;4954860;28;20058;-74
2023/09/18 12:30:50;;;;;;;3.92;2.50;;;23.10;99.90;;;;;;4963321;28;20050;-74
2023/09/18 12:33:17;;;;;;;4.72;2.90;;;23.10;99.90;;;;;;4951149;28;20027;-75
2023/09/18 12:35:42;;;;;;;5.30;2.70;;;23.20;99.90;;;;;;4939276;28;20027;-74
2023/09/18 12:38:16;;;;;;;4.65;2.72;;;23.20;99.90;;;;;;4949566;28;20393;-75
2023/09/18 12:40:44;;;;;;;7.63;3.47;;;23.20;99.90;;;;;;4944400;28;20079;-76
2023/09/18 12:43:11;;;;;;;5.82;2.63;;;23.20;99.90;;;;;;4948197;28;20037;-75